Time;durP1;ratioP1;P1;durP2;ratioP2;P2;SDS_P1;SDS_P2;PMS_P1;PMS_P2;Temp;Humidity;BMP_temperature;BMP_pressure;BME280_temperature;BME280_humidity;BME280_pressure;Samples;Min_cycle;Max_cycle;Signal;HPM_P1;HPM_P2
2022/09/25 00:01:25;;;;;;;2.45;2.00;;;18.00;96.70;;;;;;5090037;28;20535;-83
2022/09/25 00:03:54;;;;;;;2.42;2.08;;;18.00;96.70;;;;;;5107117;28;20770;-84
2022/09/25 00:06:26;;;;;;;3.30;2.20;;;18.00;96.70;;;;;;5106169;28;20044;-83
2022/09/25 00:08:55;;;;;;;2.40;1.85;;;18.00;96.70;;;;;;5107033;28;20592;-84
2022/09/25 00:11:29;;;;;;;2.75;1.73;;;18.00;96.70;;;;;;5104597;28;20074;-83
2022/09/25 00:13:59;;;;;;;2.50;1.63;;;18.10;96.70;;;;;;5098130;28;20047;-83
2022/09/25 00:16:29;;;;;;;2.20;1.80;;;18.10;96.70;;;;;;5104263;28;20160;-83
2022/09/25 00:21:50;;;;;;;1.20;1.10;;;18.00;96.70;;;;;;5107135;28;20082;-83
2022/09/25 00:24:19;;;;;;;2.70;1.50;;;18.00;96.70;;;;;;5102848;28;20446;-83
2022/09/25 00:26:47;;;;;;;4.30;1.77;;;18.00;96.70;;;;;;5107398;28;20562;-83
2022/09/25 00:29:17;;;;;;;2.17;1.58;;;18.00;96.70;;;;;;5102614;28;20040;-83
2022/09/25 00:31:46;;;;;;;1.88;1.25;;;18.00;96.70;;;;;;5105693;28;20044;-84
2022/09/25 00:34:14;;;;;;;2.25;1.45;;;18.00;96.70;;;;;;5089476;28;20073;-83
2022/09/25 00:36:42;;;;;;;2.05;1.42;;;18.00;96.70;;;;;;5106442;28;20070;-84
2022/09/25 00:39:11;;;;;;;1.75;1.10;;;18.00;96.70;;;;;;5107656;28;20681;-83
2022/09/25 00:41:39;;;;;;;1.88;1.20;;;18.10;96.70;;;;;;5107150;28;20416;-84
2022/09/25 00:44:55;;;;;;;1.85;1.20;;;18.10;96.70;;;;;;5102872;28;20701;-84
2022/09/25 00:47:59;;;;;;;1.75;1.20;;;18.00;96.70;;;;;;4992225;28;20083;-84
2022/09/25 00:50:32;;;;;;;1.90;1.10;;;18.10;96.70;;;;;;5021239;28;20140;-83
2022/09/25 00:53:05;;;;;;;4.13;1.55;;;18.00;96.70;;;;;;5006117;28;20045;-84
2022/09/25 00:55:36;;;;;;;2.58;1.40;;;18.00;96.70;;;;;;4984100;28;20042;-84
2022/09/25 00:58:06;;;;;;;2.58;1.27;;;18.00;96.70;;;;;;5008243;28;20045;-83
2022/09/25 01:00:34;;;;;;;2.20;0.90;;;18.00;96.70;;;;;;5024683;28;20064;-83
2022/09/25 01:03:03;;;;;;;2.20;0.80;;;18.00;96.70;;;;;;5007228;28;20053;-83
2022/09/25 01:05:34;;;;;;;1.35;0.77;;;18.00;96.70;;;;;;5019596;28;20041;-84
2022/09/25 01:08:07;;;;;;;6.68;1.60;;;18.00;96.70;;;;;;5008108;28;20503;-83
2022/09/25 01:10:36;;;;;;;0.90;0.60;;;18.00;96.70;;;;;;4999606;28;20050;-84
2022/09/25 01:13:05;;;;;;;1.75;0.63;;;18.00;96.70;;;;;;5003401;28;20266;-84
2022/09/25 01:15:41;;;;;;;1.02;0.50;;;18.00;96.70;;;;;;4988957;28;20412;-84
2022/09/25 01:18:18;;;;;;;2.53;0.50;;;18.00;96.70;;;;;;5020164;28;20121;-84
2022/09/25 01:20:55;;;;;;;;;;;18.10;96.70;;;;;;5022247;28;20124;-84
2022/09/25 01:23:38;;;;;;;1.67;0.40;;;18.10;96.70;;;;;;5105484;28;20045;-84
2022/09/25 01:26:30;;;;;;;4.85;0.82;;;18.10;96.70;;;;;;5104115;28;20501;-84
2022/09/25 01:29:10;;;;;;;1.42;0.60;;;18.10;96.70;;;;;;5113933;28;20044;-84
2022/09/25 01:31:46;;;;;;;1.73;0.60;;;18.00;96.70;;;;;;5102325;28;20105;-84
2022/09/25 01:34:19;;;;;;;2.67;0.77;;;18.10;96.70;;;;;;5105487;28;20039;-84
2022/09/25 01:36:52;;;;;;;4.32;1.17;;;18.10;96.70;;;;;;5100686;28;20062;-84
2022/09/25 01:39:28;;;;;;;1.50;0.70;;;18.10;96.70;;;;;;5106108;28;20101;-84
2022/09/25 01:42:02;;;;;;;1.63;0.75;;;18.10;96.70;;;;;;5090856;28;20047;-82
2022/09/25 01:44:35;;;;;;;2.70;0.98;;;18.00;96.70;;;;;;5092867;28;20271;-82
2022/09/25 01:47:08;;;;;;;2.17;0.60;;;18.10;96.70;;;;;;5109774;28;20047;-84
2022/09/25 01:49:41;;;;;;;2.70;1.17;;;18.10;96.70;;;;;;5091177;28;20052;-82
2022/09/25 01:52:14;;;;;;;1.55;0.68;;;18.10;96.70;;;;;;5108719;28;20064;-82
2022/09/25 01:54:45;;;;;;;1.17;0.70;;;18.10;96.70;;;;;;5106346;28;20069;-84
2022/09/25 01:57:19;;;;;;;2.05;0.75;;;18.10;96.70;;;;;;5109236;28;20052;-82
2022/09/25 01:59:53;;;;;;;2.60;0.52;;;18.10;96.70;;;;;;5079153;28;20051;-82
2022/09/25 02:02:25;;;;;;;1.60;0.80;;;18.10;96.70;;;;;;5105687;28;20047;-82
2022/09/25 02:04:59;;;;;;;1.15;0.60;;;18.10;96.70;;;;;;5110195;28;20067;-83
2022/09/25 02:07:31;;;;;;;1.05;0.30;;;18.00;96.70;;;;;;5108539;28;20050;-82
2022/09/25 02:10:04;;;;;;;2.67;0.45;;;18.00;96.70;;;;;;5104204;28;20047;-82
2022/09/25 02:12:39;;;;;;;1.65;0.50;;;18.10;96.70;;;;;;5110671;28;21062;-84
2022/09/25 02:15:13;;;;;;;2.47;0.38;;;18.10;96.70;;;;;;5109433;28;21086;-82
2022/09/25 02:20:35;;;;;;;6.68;1.10;;;18.10;96.70;;;;;;5110062;28;20062;-84
2022/09/25 02:23:12;;;;;;;2.22;0.35;;;18.10;96.70;;;;;;5109166;28;20092;-84
2022/09/25 02:25:43;;;;;;;1.17;0.30;;;18.10;96.70;;;;;;5092684;28;20608;-82
2022/09/25 02:28:12;;;;;;;1.50;0.30;;;18.10;96.70;;;;;;5109392;28;20084;-82
2022/09/25 02:30:43;;;;;;;1.35;0.45;;;18.10;96.70;;;;;;5110856;28;20071;-84
2022/09/25 02:33:11;;;;;;;2.30;0.60;;;18.10;96.70;;;;;;5099802;28;20042;-85
2022/09/25 02:35:41;;;;;;;1.67;0.30;;;18.10;96.70;;;;;;5102973;28;20825;-83
2022/09/25 02:38:09;;;;;;;4.40;0.60;;;18.10;96.70;;;;;;5110440;28;20054;-85
2022/09/25 02:40:44;;;;;;;2.03;0.68;;;18.10;96.70;;;;;;5109166;28;20047;-83
2022/09/25 02:43:20;;;;;;;0.77;0.40;;;18.10;96.70;;;;;;5109408;28;20493;-85
2022/09/25 02:46:01;;;;;;;0.55;0.30;;;18.10;96.70;;;;;;5110538;28;20081;-83
2022/09/25 02:48:40;;;;;;;1.20;0.50;;;18.10;96.70;;;;;;5109047;28;20043;-82
2022/09/25 02:51:15;;;;;;;2.13;0.40;;;18.20;96.70;;;;;;5091722;28;20058;-84
2022/09/25 02:53:46;;;;;;;2.67;0.50;;;18.20;96.70;;;;;;5106083;28;20104;-82
2022/09/25 02:56:22;;;;;;;0.43;0.30;;;18.10;96.70;;;;;;5109672;28;20074;-82
2022/09/25 02:58:53;;;;;;;1.95;0.80;;;18.10;96.70;;;;;;5108673;28;20493;-82
2022/09/25 03:01:26;;;;;;;0.70;0.40;;;18.10;96.70;;;;;;5106398;28;20043;-82
2022/09/25 03:03:56;;;;;;;0.50;0.30;;;18.10;96.70;;;;;;5106483;28;20481;-82
2022/09/25 03:06:25;;;;;;;2.67;0.57;;;18.20;96.70;;;;;;5105226;28;20048;-82
2022/09/25 03:08:55;;;;;;;1.58;0.45;;;18.20;96.70;;;;;;5091146;28;20111;-82
2022/09/25 03:11:28;;;;;;;1.60;0.40;;;18.10;96.70;;;;;;5107156;28;20043;-82
2022/09/25 03:13:57;;;;;;;1.95;0.50;;;18.10;96.70;;;;;;5108150;28;20566;-82
2022/09/25 03:16:33;;;;;;;0.77;0.30;;;18.10;96.70;;;;;;5107680;28;20146;-82
2022/09/25 03:19:02;;;;;;;0.85;0.30;;;18.10;96.70;;;;;;5109378;28;20047;-84
2022/09/25 03:21:30;;;;;;;1.75;0.22;;;18.10;96.70;;;;;;5091237;28;20115;-82
2022/09/25 03:23:58;;;;;;;2.90;0.30;;;18.10;96.70;;;;;;5087307;28;20048;-82
2022/09/25 03:26:26;;;;;;;0.52;0.30;;;18.00;96.70;;;;;;5091436;28;20629;-82
2022/09/25 03:28:55;;;;;;;3.80;0.40;;;18.00;96.70;;;;;;5107433;28;20047;-82
2022/09/25 03:31:22;;;;;;;2.88;0.40;;;18.00;96.70;;;;;;5108079;28;20042;-82
2022/09/25 03:33:52;;;;;;;0.60;0.40;;;18.00;96.70;;;;;;5107621;28;20053;-82
2022/09/25 03:36:21;;;;;;;0.57;0.30;;;18.00;96.70;;;;;;5109331;28;20032;-82
2022/09/25 03:38:51;;;;;;;2.45;0.68;;;18.00;96.70;;;;;;5090895;28;20142;-82
2022/09/25 03:41:21;;;;;;;2.45;0.40;;;18.00;96.70;;;;;;5108979;28;20039;-82
2022/09/25 03:43:52;;;;;;;0.77;0.30;;;18.00;96.70;;;;;;5094111;28;20727;-82
2022/09/25 03:46:22;;;;;;;1.67;0.40;;;18.00;96.70;;;;;;5109358;27;20051;-82
2022/09/25 03:48:52;;;;;;;1.65;0.50;;;18.00;96.70;;;;;;5107320;28;20047;-82
2022/09/25 03:51:20;;;;;;;1.45;0.50;;;17.90;96.70;;;;;;5103216;28;20198;-81
2022/09/25 03:53:49;;;;;;;0.63;0.50;;;17.90;96.70;;;;;;5101384;28;20043;-81
2022/09/25 03:56:19;;;;;;;0.65;0.52;;;17.90;96.70;;;;;;5100245;28;20122;-82
2022/09/25 03:58:48;;;;;;;1.58;0.73;;;17.80;96.70;;;;;;5102468;28;20048;-81
2022/09/25 04:01:20;;;;;;;1.92;0.65;;;17.80;96.70;;;;;;5107098;28;20051;-82
2022/09/25 04:03:49;;;;;;;2.80;0.88;;;17.80;96.70;;;;;;5107121;28;20131;-81
2022/09/25 04:06:23;;;;;;;2.80;0.73;;;17.80;96.70;;;;;;5106486;28;20043;-82
2022/09/25 04:08:51;;;;;;;2.22;0.60;;;17.70;96.70;;;;;;5107362;28;20577;-82
2022/09/25 04:11:22;;;;;;;1.80;0.50;;;17.80;96.70;;;;;;5109074;28;20032;-82
2022/09/25 04:13:51;;;;;;;0.98;0.60;;;17.70;96.70;;;;;;5106898;28;20052;-81
2022/09/25 04:16:19;;;;;;;1.30;0.50;;;17.70;96.70;;;;;;5106390;28;20782;-81
2022/09/25 04:18:48;;;;;;;1.63;0.55;;;17.70;96.70;;;;;;5098888;28;20063;-84
2022/09/25 04:21:18;;;;;;;1.75;0.60;;;17.70;96.70;;;;;;5090175;28;20516;-84
2022/09/25 04:24:47;;;;;;;1.75;0.68;;;17.70;96.70;;;;;;5107108;28;20127;-82
2022/09/25 04:26:34;;;;;;;2.75;0.70;;;17.60;96.70;;;;;;5105115;28;20046;-81
2022/09/25 04:29:02;;;;;;;2.25;0.63;;;17.70;96.70;;;;;;5107329;28;20515;-82
2022/09/25 04:31:30;;;;;;;1.33;0.60;;;17.60;96.70;;;;;;5106764;28;20580;-82
2022/09/25 04:33:59;;;;;;;0.60;0.40;;;17.60;96.70;;;;;;5104393;28;20629;-82
2022/09/25 04:36:29;;;;;;;2.80;0.60;;;17.70;96.70;;;;;;5086534;28;20052;-82
2022/09/25 04:38:57;;;;;;;1.95;0.40;;;17.60;96.70;;;;;;5090016;28;20051;-82
2022/09/25 04:41:24;;;;;;;0.63;0.40;;;17.50;96.70;;;;;;5105534;28;20055;-82
2022/09/25 04:43:52;;;;;;;1.83;0.45;;;17.50;96.70;;;;;;5089468;28;21187;-82
2022/09/25 04:46:20;;;;;;;1.08;0.40;;;17.50;96.70;;;;;;5106639;28;20505;-82
2022/09/25 04:48:49;;;;;;;1.80;0.43;;;17.50;96.70;;;;;;5086546;28;20091;-81
2022/09/25 04:51:17;;;;;;;0.68;0.40;;;17.50;96.70;;;;;;5089878;28;20116;-82
2022/09/25 04:53:47;;;;;;;1.08;0.70;;;17.50;96.70;;;;;;5106229;28;20051;-82
2022/09/25 04:56:15;;;;;;;0.73;0.40;;;17.40;96.70;;;;;;5096483;28;20044;-82
2022/09/25 04:58:45;;;;;;;1.35;0.50;;;17.40;96.70;;;;;;5089267;28;20040;-82
2022/09/25 05:01:13;;;;;;;0.77;0.35;;;17.40;96.70;;;;;;5085263;28;20052;-82
2022/09/25 05:03:41;;;;;;;1.20;0.40;;;17.40;96.70;;;;;;5107569;28;20042;-82
2022/09/25 05:06:09;;;;;;;1.42;0.40;;;17.40;96.70;;;;;;5088975;28;20058;-82
2022/09/25 05:08:37;;;;;;;1.50;0.40;;;17.30;96.70;;;;;;5105623;28;20040;-82
2022/09/25 05:11:07;;;;;;;2.58;0.70;;;17.40;96.70;;;;;;5099008;28;20108;-81
2022/09/25 05:13:35;;;;;;;1.92;0.50;;;17.40;96.70;;;;;;5099776;28;20121;-81
2022/09/25 05:16:03;;;;;;;1.95;0.60;;;17.40;96.70;;;;;;5090379;28;20043;-81
2022/09/25 05:18:30;;;;;;;2.13;0.38;;;17.40;96.70;;;;;;5110352;28;20168;-85
2022/09/25 05:21:03;;;;;;;0.93;0.50;;;17.40;96.70;;;;;;5112349;28;20039;-84
2022/09/25 05:23:31;;;;;;;0.77;0.30;;;17.40;96.70;;;;;;5104092;28;20051;-81
2022/09/25 05:26:02;;;;;;;2.72;0.63;;;17.40;96.70;;;;;;5110193;28;20071;-82
2022/09/25 05:28:31;;;;;;;2.92;0.60;;;17.40;96.70;;;;;;5105066;28;20043;-82
2022/09/25 05:31:03;;;;;;;2.28;0.73;;;17.40;96.70;;;;;;5090680;28;20078;-84
2022/09/25 05:33:32;;;;;;;0.80;0.50;;;17.30;96.70;;;;;;5110197;28;20047;-84
2022/09/25 05:36:04;;;;;;;1.73;0.40;;;17.30;96.70;;;;;;5107527;28;20053;-85
2022/09/25 05:38:34;;;;;;;0.63;0.40;;;17.20;96.70;;;;;;5089931;28;20054;-85
2022/09/25 05:41:05;;;;;;;1.17;0.50;;;17.20;96.70;;;;;;5108671;28;20114;-81
2022/09/25 05:43:39;;;;;;;1.52;0.32;;;17.20;96.70;;;;;;5110300;28;20062;-84
2022/09/25 05:46:08;;;;;;;1.15;0.68;;;17.30;96.70;;;;;;5100077;28;20049;-84
2022/09/25 05:48:37;;;;;;;2.08;0.63;;;17.30;96.70;;;;;;5109469;28;20044;-84
2022/09/25 05:51:05;;;;;;;1.88;0.50;;;17.40;96.70;;;;;;5093659;28;20036;-84
2022/09/25 05:53:33;;;;;;;0.85;0.52;;;17.40;96.70;;;;;;5111203;28;20118;-84
2022/09/25 05:56:02;;;;;;;2.05;0.80;;;17.50;96.70;;;;;;5110416;28;20039;-84
2022/09/25 05:58:32;;;;;;;1.70;0.73;;;17.60;96.70;;;;;;5109485;28;20077;-85
2022/09/25 06:01:03;;;;;;;1.35;0.70;;;17.60;96.70;;;;;;5091940;28;20048;-82
2022/09/25 06:03:31;;;;;;;1.52;0.50;;;17.70;96.70;;;;;;5105945;28;20111;-82
2022/09/25 06:06:00;;;;;;;2.22;0.60;;;17.70;96.70;;;;;;5109888;28;20047;-82
2022/09/25 06:08:34;;;;;;;6.00;1.55;;;17.70;96.70;;;;;;5088836;28;20532;-82
2022/09/25 06:11:03;;;;;;;3.97;3.67;;;17.70;96.70;;;;;;5083564;28;20064;-82
2022/09/25 06:13:33;;;;;;;4.78;2.60;;;17.70;96.70;;;;;;5109377;28;20079;-81
2022/09/25 06:16:04;;;;;;;3.65;2.22;;;17.70;96.70;;;;;;5101529;28;20050;-81
2022/09/25 06:18:32;;;;;;;2.17;1.80;;;17.70;96.70;;;;;;5107578;28;20047;-82
2022/09/25 06:21:02;;;;;;;3.88;1.40;;;17.80;96.70;;;;;;5109930;28;20031;-82
2022/09/25 06:23:30;;;;;;;2.38;1.10;;;17.80;96.70;;;;;;5109114;28;20138;-82
2022/09/25 06:26:01;;;;;;;1.23;1.00;;;17.80;96.70;;;;;;5110065;28;20119;-84
2022/09/25 06:28:29;;;;;;;3.03;0.95;;;17.90;96.70;;;;;;5109551;28;20413;-84
2022/09/25 06:30:59;;;;;;;1.88;1.23;;;17.90;96.70;;;;;;5091860;28;20473;-84
2022/09/25 06:33:30;;;;;;;1.58;1.48;;;17.90;96.70;;;;;;5109357;28;20482;-84
2022/09/25 06:35:59;;;;;;;5.25;1.95;;;17.90;96.70;;;;;;5117368;27;20511;-84
2022/09/25 06:38:27;;;;;;;2.60;2.40;;;17.90;96.70;;;;;;5091301;28;20101;-84
2022/09/25 06:40:57;;;;;;;6.60;4.78;;;17.90;96.70;;;;;;5102933;28;20758;-82
2022/09/25 06:43:27;;;;;;;4.70;4.30;;;17.90;96.70;;;;;;5100178;28;20043;-84
2022/09/25 06:46:00;;;;;;;5.03;4.10;;;17.90;96.70;;;;;;5107342;28;20039;-84
2022/09/25 06:48:30;;;;;;;4.22;3.83;;;18.00;96.70;;;;;;5092227;28;20092;-84
2022/09/25 06:50:59;;;;;;;2.60;2.40;;;18.10;96.70;;;;;;5108710;28;20051;-84
2022/09/25 06:53:27;;;;;;;1.92;1.80;;;18.10;96.70;;;;;;5107023;28;20047;-82
2022/09/25 06:55:58;;;;;;;2.72;1.70;;;18.20;96.70;;;;;;5110597;28;20093;-84
2022/09/25 06:58:26;;;;;;;2.72;1.63;;;18.20;96.70;;;;;;5109962;28;20053;-85
2022/09/25 07:00:55;;;;;;;3.53;1.63;;;18.30;96.70;;;;;;5101514;28;20126;-84
2022/09/25 07:03:43;;;;;;;1.95;0.80;;;18.30;96.70;;;;;;5091721;28;20619;-82
2022/09/25 07:06:14;;;;;;;1.00;0.60;;;18.30;96.70;;;;;;5107293;28;20052;-82
2022/09/25 07:08:43;;;;;;;1.52;0.65;;;18.40;96.70;;;;;;5089869;28;20047;-82
2022/09/25 07:11:13;;;;;;;1.58;0.50;;;18.40;96.70;;;;;;5090912;28;20489;-82
2022/09/25 07:13:41;;;;;;;1.17;0.60;;;18.50;96.70;;;;;;5107477;28;20052;-80
2022/09/25 07:16:12;;;;;;;1.40;0.60;;;18.50;96.70;;;;;;5108002;28;20043;-82
2022/09/25 07:18:41;;;;;;;1.58;0.70;;;18.50;96.70;;;;;;5078481;28;20058;-81
2022/09/25 07:21:12;;;;;;;1.13;0.60;;;18.50;96.70;;;;;;5091041;28;20128;-83
2022/09/25 07:23:41;;;;;;;1.27;0.65;;;18.50;96.70;;;;;;5080389;28;21497;-82
2022/09/25 07:26:10;;;;;;;2.30;0.65;;;18.60;96.70;;;;;;5089456;28;20130;-81
2022/09/25 07:28:40;;;;;;;5.13;0.55;;;18.60;96.70;;;;;;5091282;28;20052;-84
2022/09/25 07:31:12;;;;;;;2.08;0.70;;;18.60;96.70;;;;;;5109961;28;20047;-84
2022/09/25 07:33:40;;;;;;;2.75;0.50;;;18.70;96.70;;;;;;5106203;28;20139;-82
2022/09/25 07:36:09;;;;;;;1.63;0.70;;;18.70;96.70;;;;;;5084916;28;20044;-84
2022/09/25 07:38:39;;;;;;;0.68;0.50;;;18.80;96.70;;;;;;5090663;28;20119;-84
2022/09/25 07:41:09;;;;;;;1.00;0.52;;;18.90;96.70;;;;;;5108322;28;20781;-83
2022/09/25 07:43:37;;;;;;;0.70;0.50;;;18.90;96.70;;;;;;5107681;28;20059;-83
2022/09/25 07:46:06;;;;;;;1.00;0.80;;;19.00;96.70;;;;;;5109721;28;20774;-82
2022/09/25 07:48:34;;;;;;;1.05;0.90;;;19.10;96.70;;;;;;5104775;28;20046;-84
2022/09/25 07:51:03;;;;;;;1.00;0.77;;;19.30;96.70;;;;;;5109667;28;20045;-84
2022/09/25 07:53:31;;;;;;;1.35;0.80;;;19.40;96.70;;;;;;5106044;28;20526;-83
2022/09/25 07:56:01;;;;;;;1.42;0.55;;;19.60;96.70;;;;;;5107413;28;20516;-83
2022/09/25 07:58:37;;;;;;;2.90;1.15;;;19.70;96.70;;;;;;5106760;28;20059;-83
2022/09/25 08:01:07;;;;;;;1.95;0.90;;;19.90;96.70;;;;;;5101013;28;20158;-84
2022/09/25 08:03:37;;;;;;;0.70;0.50;;;20.00;96.70;;;;;;5099132;28;20092;-83
2022/09/25 08:06:10;;;;;;;0.90;0.50;;;19.90;96.70;;;;;;5107543;28;20427;-83
2022/09/25 08:08:39;;;;;;;1.10;0.50;;;19.90;96.70;;;;;;5106815;28;20155;-82
2022/09/25 08:11:10;;;;;;;1.65;0.43;;;19.90;96.70;;;;;;5106254;28;20699;-83
2022/09/25 08:13:40;;;;;;;0.88;0.52;;;19.90;96.70;;;;;;5106752;28;20060;-84
2022/09/25 08:16:12;;;;;;;1.38;0.43;;;19.70;96.70;;;;;;5087111;28;20048;-85
2022/09/25 08:18:44;;;;;;;1.58;0.60;;;19.60;96.70;;;;;;5104466;28;20054;-83
2022/09/25 08:21:14;;;;;;;0.98;0.40;;;19.60;96.70;;;;;;5101356;28;20442;-83
2022/09/25 08:23:44;;;;;;;2.03;0.52;;;19.60;96.70;;;;;;5102613;28;20128;-81
2022/09/25 08:26:16;;;;;;;0.85;0.57;;;19.60;96.70;;;;;;5107121;28;20071;-83
2022/09/25 08:28:45;;;;;;;0.47;0.47;;;19.70;96.70;;;;;;5105808;28;20048;-82
2022/09/25 08:31:13;;;;;;;1.95;0.60;;;19.80;96.70;;;;;;5092055;28;20069;-81
2022/09/25 08:33:44;;;;;;;1.33;0.80;;;19.90;96.70;;;;;;5105495;28;20043;-78
2022/09/25 08:36:13;;;;;;;1.77;0.82;;;19.90;96.70;;;;;;5098837;28;20042;-84
2022/09/25 08:38:41;;;;;;;2.85;1.10;;;19.90;96.70;;;;;;5102711;28;20122;-82
2022/09/25 08:41:15;;;;;;;2.08;0.90;;;19.90;96.70;;;;;;5106219;28;20138;-82
2022/09/25 08:43:54;;;;;;;1.05;0.70;;;19.90;96.70;;;;;;5080079;28;20052;-81
2022/09/25 08:49:13;;;;;;;1.58;0.95;;;19.90;96.70;;;;;;5108093;28;20036;-82
2022/09/25 08:51:44;;;;;;;1.17;0.60;;;19.90;96.70;;;;;;5096665;28;20044;-83
2022/09/25 08:54:19;;;;;;;0.90;0.63;;;19.90;96.70;;;;;;5095860;28;20044;-83
2022/09/25 08:56:50;;;;;;;0.95;0.60;;;19.90;96.70;;;;;;5107045;28;20055;-82
2022/09/25 08:59:25;;;;;;;1.33;0.70;;;19.90;96.70;;;;;;5089958;28;20066;-84
2022/09/25 09:01:58;;;;;;;3.08;0.93;;;19.90;96.70;;;;;;5108359;28;20050;-83
2022/09/25 09:04:32;;;;;;;1.85;1.30;;;19.90;96.70;;;;;;5106887;28;20051;-83
2022/09/25 09:07:07;;;;;;;1.67;1.05;;;19.90;96.70;;;;;;5105757;28;20508;-84
2022/09/25 09:09:59;;;;;;;3.45;1.30;;;19.90;96.70;;;;;;5085989;28;20048;-83
2022/09/25 09:12:33;;;;;;;1.95;1.00;;;20.00;96.70;;;;;;5099925;28;20058;-83
2022/09/25 09:15:15;;;;;;;1.88;1.20;;;20.00;96.70;;;;;;5107535;28;20039;-85
2022/09/25 09:17:44;;;;;;;1.02;0.73;;;20.00;96.70;;;;;;5086005;28;20052;-85
2022/09/25 09:20:17;;;;;;;4.45;1.20;;;20.10;96.70;;;;;;5100087;28;20039;-82
2022/09/25 09:22:49;;;;;;;1.10;0.80;;;20.10;96.70;;;;;;5104000;28;20050;-84
2022/09/25 09:25:27;;;;;;;1.08;0.70;;;20.10;96.70;;;;;;5102675;28;20051;-83
2022/09/25 09:28:24;;;;;;;1.25;0.63;;;20.20;96.70;;;;;;5106935;28;20048;-84
2022/09/25 09:31:04;;;;;;;0.85;0.70;;;20.20;96.70;;;;;;5105953;28;20510;-87
2022/09/25 09:33:50;;;;;;;1.00;0.50;;;20.40;96.70;;;;;;5105087;28;20052;-82
2022/09/25 09:36:25;;;;;;;1.48;0.90;;;20.50;96.70;;;;;;5095703;28;20050;-81
2022/09/25 09:39:04;;;;;;;6.05;1.10;;;20.50;96.70;;;;;;5087223;28;20565;-78
2022/09/25 09:41:44;;;;;;;1.08;0.70;;;20.60;96.70;;;;;;5103105;28;20048;-82
2022/09/25 09:44:25;;;;;;;3.90;0.80;;;20.60;96.70;;;;;;5099452;28;20564;-78
2022/09/25 09:47:06;;;;;;;1.30;0.75;;;20.60;96.70;;;;;;5099971;28;20051;-77
2022/09/25 09:49:42;;;;;;;2.15;0.88;;;20.60;96.70;;;;;;5102803;28;20081;-78
2022/09/25 09:52:16;;;;;;;1.10;0.73;;;20.70;96.70;;;;;;5083146;28;20047;-78
2022/09/25 09:54:48;;;;;;;3.55;0.80;;;20.80;96.70;;;;;;5101779;28;20040;-76
2022/09/25 09:57:20;;;;;;;0.73;0.50;;;20.80;96.70;;;;;;5098352;28;20074;-79
2022/09/25 09:59:54;;;;;;;1.50;0.95;;;20.80;96.70;;;;;;5102680;28;20075;-77
2022/09/25 10:02:36;;;;;;;1.10;0.68;;;20.90;96.70;;;;;;5100528;28;20122;-77
2022/09/25 10:05:11;;;;;;;2.55;0.73;;;20.90;96.70;;;;;;5106155;28;20050;-78
2022/09/25 10:07:42;;;;;;;1.15;0.93;;;21.00;96.70;;;;;;5102914;28;20499;-78
2022/09/25 10:10:13;;;;;;;2.13;1.20;;;21.10;96.70;;;;;;5100791;28;20063;-77
2022/09/25 10:12:46;;;;;;;2.25;1.00;;;21.10;96.70;;;;;;5097417;28;20044;-78
2022/09/25 10:15:27;;;;;;;2.20;0.90;;;21.20;96.70;;;;;;5107141;28;20048;-78
2022/09/25 10:18:00;;;;;;;1.65;1.40;;;21.30;96.70;;;;;;5108684;28;20051;-83
2022/09/25 10:20:35;;;;;;;1.67;0.80;;;21.40;96.70;;;;;;5101977;28;20104;-86
2022/09/25 10:23:05;;;;;;;1.45;0.77;;;21.50;96.70;;;;;;5107133;28;20047;-87
2022/09/25 10:25:38;;;;;;;3.15;0.90;;;21.50;96.70;;;;;;5093027;28;20044;-86
2022/09/25 10:28:24;;;;;;;1.40;0.80;;;21.40;96.70;;;;;;5104326;28;20446;-84
2022/09/25 10:30:53;;;;;;;1.45;0.60;;;21.50;96.70;;;;;;5121715;27;20108;-81
2022/09/25 10:33:26;;;;;;;1.98;0.80;;;21.50;96.70;;;;;;5105565;28;20160;-81
2022/09/25 10:35:55;;;;;;;1.23;0.70;;;21.50;96.70;;;;;;5102722;28;20127;-82
2022/09/25 10:38:40;;;;;;;4.63;0.93;;;21.50;96.70;;;;;;5089081;28;20039;-82
2022/09/25 10:41:11;;;;;;;2.17;0.82;;;21.60;96.70;;;;;;5102496;28;20073;-82
2022/09/25 10:43:52;;;;;;;3.65;1.00;;;21.60;96.70;;;;;;5106121;28;20052;-87
2022/09/25 10:52:11;;;;;;;1.55;0.70;;;21.60;96.70;;;;;;5107231;28;20047;-81
2022/09/25 10:54:40;;;;;;;1.20;0.70;;;21.60;96.70;;;;;;5108305;28;20039;-82
2022/09/25 10:57:25;;;;;;;0.80;0.57;;;21.60;96.70;;;;;;5106834;28;20399;-81
2022/09/25 10:59:54;;;;;;;1.65;0.98;;;21.60;96.70;;;;;;5105426;28;20465;-80
2022/09/25 11:02:32;;;;;;;1.73;0.90;;;21.50;96.70;;;;;;5108474;28;20777;-87
2022/09/25 11:05:04;;;;;;;2.15;0.70;;;21.50;96.70;;;;;;5091998;28;20504;-83
2022/09/25 11:07:33;;;;;;;1.08;0.90;;;21.50;96.70;;;;;;5110076;28;20040;-85
2022/09/25 11:10:02;;;;;;;2.78;0.80;;;21.50;96.70;;;;;;5091803;28;20139;-84
2022/09/25 11:12:31;;;;;;;1.45;0.85;;;21.40;96.70;;;;;;5109820;28;20414;-86
2022/09/25 11:15:02;;;;;;;1.60;0.80;;;21.30;96.70;;;;;;5106825;28;20052;-81
2022/09/25 11:17:36;;;;;;;1.33;0.60;;;21.30;96.70;;;;;;5102928;28;20074;-82
2022/09/25 11:20:34;;;;;;;1.33;0.75;;;21.20;96.70;;;;;;5098678;28;20138;-83
2022/09/25 11:23:28;;;;;;;1.20;0.90;;;21.10;96.70;;;;;;5108789;28;20052;-80
2022/09/25 11:26:07;;;;;;;1.02;0.70;;;21.10;96.70;;;;;;5106044;28;20050;-86
2022/09/25 11:28:43;;;;;;;1.90;0.98;;;21.10;96.70;;;;;;5107509;28;20039;-86
2022/09/25 11:31:20;;;;;;;2.47;0.82;;;21.20;96.70;;;;;;5106046;28;20050;-82
2022/09/25 11:33:54;;;;;;;2.15;0.88;;;21.20;96.70;;;;;;5106678;28;20564;-82
2022/09/25 11:36:30;;;;;;;1.05;0.65;;;21.20;96.70;;;;;;5108507;28;20510;-74
2022/09/25 11:41:54;;;;;;;1.35;0.50;;;21.40;96.70;;;;;;5108863;28;20069;-81
2022/09/25 11:44:31;;;;;;;0.88;0.70;;;21.50;96.70;;;;;;5122195;27;20142;-81
2022/09/25 11:47:06;;;;;;;2.90;0.70;;;21.50;96.70;;;;;;5107391;28;20055;-81
2022/09/25 11:49:37;;;;;;;;;;;21.40;96.70;;;;;;5085361;28;20413;-84
2022/09/25 11:52:42;;;;;;;2.05;0.85;;;21.40;96.70;;;;;;5071953;28;19963;-82
2022/09/25 11:55:51;;;;;;;1.52;0.77;;;21.40;96.70;;;;;;5074023;28;20071;-83
2022/09/25 11:58:36;;;;;;;1.50;0.82;;;21.40;96.70;;;;;;5064728;28;20052;-82
2022/09/25 12:01:18;;;;;;;2.58;1.00;;;21.40;96.70;;;;;;5079038;28;20584;-80
2022/09/25 12:04:06;;;;;;;2.15;1.40;;;21.30;96.70;;;;;;5083584;28;20071;-81
2022/09/25 12:06:55;;;;;;;5.75;2.00;;;21.30;96.70;;;;;;5083246;28;20829;-81
2022/09/25 12:09:41;;;;;;;2.88;1.60;;;21.30;96.70;;;;;;5078474;28;20052;-83
2022/09/25 12:12:23;;;;;;;3.10;1.20;;;21.20;96.70;;;;;;5075946;28;20137;-80
2022/09/25 12:15:03;;;;;;;1.40;0.82;;;21.10;96.70;;;;;;5098046;28;20115;-82
2022/09/25 12:17:39;;;;;;;0.93;0.80;;;21.10;96.70;;;;;;5079737;28;20042;-81
2022/09/25 12:20:17;;;;;;;2.03;1.05;;;21.10;96.70;;;;;;5064865;28;20058;-79
2022/09/25 12:22:56;;;;;;;1.92;0.75;;;21.00;96.70;;;;;;5091777;28;20416;-80
2022/09/25 12:25:48;;;;;;;0.90;0.85;;;21.00;96.70;;;;;;5093325;28;20048;-81
2022/09/25 12:28:38;;;;;;;1.95;0.70;;;21.00;96.70;;;;;;5104555;28;20070;-80
2022/09/25 12:31:14;;;;;;;2.70;1.42;;;21.00;96.70;;;;;;5099819;28;20047;-81
2022/09/25 12:33:52;;;;;;;1.85;1.20;;;21.00;96.70;;;;;;5103067;28;20372;-80
2022/09/25 12:36:26;;;;;;;1.35;0.88;;;21.00;96.70;;;;;;5102138;28;20047;-82
2022/09/25 12:39:00;;;;;;;2.58;0.95;;;21.10;96.70;;;;;;5101958;28;20497;-81
2022/09/25 12:41:32;;;;;;;1.63;1.15;;;21.10;96.70;;;;;;5102111;28;20055;-80
2022/09/25 12:44:09;;;;;;;0.85;0.70;;;21.10;96.70;;;;;;5103275;28;20409;-80
2022/09/25 12:46:42;;;;;;;0.98;0.85;;;21.10;96.70;;;;;;5099500;28;20105;-81
2022/09/25 12:49:17;;;;;;;0.80;0.70;;;21.10;96.70;;;;;;5097873;28;20044;-81
2022/09/25 12:51:51;;;;;;;1.42;0.90;;;21.20;96.70;;;;;;5103176;28;20043;-77
2022/09/25 12:54:25;;;;;;;1.77;0.88;;;21.30;96.70;;;;;;5104426;28;20039;-78
2022/09/25 12:56:57;;;;;;;1.67;1.08;;;21.20;96.70;;;;;;5102317;28;20042;-82
2022/09/25 12:59:32;;;;;;;1.27;0.80;;;21.20;96.70;;;;;;5103425;28;20047;-81
2022/09/25 13:02:10;;;;;;;1.65;0.68;;;21.20;96.70;;;;;;5105308;28;20147;-81
2022/09/25 13:05:01;;;;;;;1.52;1.00;;;21.20;96.70;;;;;;5099711;28;20485;-82
2022/09/25 13:07:37;;;;;;;1.55;0.80;;;21.30;96.70;;;;;;5097406;28;20043;-79
2022/09/25 13:10:23;;;;;;;4.15;1.30;;;21.50;96.70;;;;;;5101616;28;20508;-75
2022/09/25 13:12:54;;;;;;;1.40;0.80;;;21.90;96.70;;;;;;5101547;28;20473;-80
2022/09/25 13:15:28;;;;;;;1.00;0.90;;;22.00;96.70;;;;;;5104670;28;20047;-82
2022/09/25 13:17:57;;;;;;;1.17;0.98;;;21.90;96.70;;;;;;5105640;28;20043;-79
2022/09/25 13:20:47;;;;;;;1.02;0.82;;;21.90;96.70;;;;;;5105023;28;20043;-77
2022/09/25 13:23:23;;;;;;;1.13;0.80;;;21.80;96.70;;;;;;5105567;28;20092;-79
2022/09/25 13:26:03;;;;;;;0.75;0.60;;;21.90;96.70;;;;;;5104641;28;20489;-82
2022/09/25 13:28:35;;;;;;;1.27;0.80;;;21.90;96.70;;;;;;5104264;28;20063;-81
2022/09/25 13:31:08;;;;;;;1.27;0.90;;;22.00;96.70;;;;;;5108715;28;20058;-83
2022/09/25 13:33:43;;;;;;;1.95;0.80;;;22.00;96.70;;;;;;5101347;28;20054;-75
2022/09/25 13:36:29;;;;;;;1.27;0.80;;;22.20;96.70;;;;;;5101238;28;20496;-79